createdAt,value
2018-07-30T00:02:45.092Z,7.70
2018-07-30T00:05:48.448Z,6.83
2018-07-30T00:08:51.807Z,7.60
2018-07-30T00:11:55.148Z,7.45
2018-07-30T00:14:58.508Z,7.40
2018-07-30T00:18:01.836Z,7.75
2018-07-30T00:21:05.203Z,6.87
2018-07-30T00:24:08.577Z,7.75
2018-07-30T00:27:11.891Z,7.40
2018-07-30T00:30:15.249Z,6.75
2018-07-30T00:33:18.652Z,7.75
2018-07-30T00:36:21.984Z,7.50
2018-07-30T00:39:25.452Z,7.35
2018-07-30T00:42:28.918Z,7.45
2018-07-30T00:45:32.261Z,6.92
2018-07-30T00:48:35.583Z,6.78
2018-07-30T00:51:38.919Z,7.90
2018-07-30T00:54:42.257Z,7.28
2018-07-30T00:57:45.615Z,7.92
2018-07-30T01:00:49.501Z,8.45
2018-07-30T01:03:53.168Z,7.97
2018-07-30T01:06:56.553Z,8.23
2018-07-30T01:09:59.954Z,8.03
2018-07-30T01:13:03.291Z,7.90
2018-07-30T01:16:06.724Z,8.68
2018-07-30T01:19:10.144Z,8.33
2018-07-30T01:22:13.479Z,8.25
2018-07-30T01:25:16.833Z,7.28
2018-07-30T01:28:20.184Z,8.63
2018-07-30T01:31:23.572Z,7.70
2018-07-30T01:34:26.908Z,7.53
2018-07-30T01:37:30.247Z,7.62
2018-07-30T01:40:33.597Z,8.00
2018-07-30T01:43:37.040Z,8.55
2018-07-30T01:46:40.388Z,8.23
2018-07-30T01:49:43.737Z,8.38
2018-07-30T01:52:47.139Z,7.90
2018-07-30T01:55:50.535Z,8.28
2018-07-30T01:58:53.863Z,8.73
2018-07-30T02:01:57.246Z,8.23
2018-07-30T02:05:00.564Z,7.75
2018-07-30T02:08:04.032Z,8.03
2018-07-30T02:11:07.380Z,8.23
2018-07-30T02:14:10.737Z,7.75
2018-07-30T02:17:14.126Z,8.43
2018-07-30T02:20:17.527Z,9.10
2018-07-30T02:23:20.899Z,8.30
2018-07-30T02:26:24.292Z,7.92
2018-07-30T02:29:27.618Z,8.80
2018-07-30T02:32:30.980Z,7.75
2018-07-30T02:35:34.311Z,8.50
2018-07-30T02:38:37.677Z,7.60
2018-07-30T02:41:41.300Z,8.58
2018-07-30T02:44:44.723Z,7.65
2018-07-30T02:47:48.124Z,8.33
2018-07-30T02:50:51.523Z,8.88
2018-07-30T02:53:54.901Z,9.08
2018-07-30T02:56:58.260Z,8.73
2018-07-30T03:00:01.768Z,8.70
2018-07-30T03:03:05.221Z,8.73
2018-07-30T03:06:08.595Z,8.78
2018-07-30T03:09:12.383Z,9.35
2018-07-30T03:12:15.767Z,8.78
2018-07-30T03:15:19.154Z,8.68
2018-07-30T03:18:22.631Z,8.53
2018-07-30T03:21:25.993Z,8.75
2018-07-30T03:24:29.395Z,8.13
2018-07-30T03:27:32.781Z,8.58
2018-07-30T03:30:36.150Z,8.53
2018-07-30T03:33:39.629Z,8.93
2018-07-30T03:36:42.996Z,8.78
2018-07-30T03:39:46.348Z,8.78
2018-07-30T03:42:49.716Z,8.53
2018-07-30T03:45:53.224Z,7.97
2018-07-30T03:48:56.606Z,7.50
2018-07-30T03:52:00.013Z,9.03
2018-07-30T03:55:03.901Z,8.38
2018-07-30T03:58:07.331Z,9.50
2018-07-30T04:01:10.740Z,8.60
2018-07-30T04:04:14.134Z,8.83
2018-07-30T04:07:17.531Z,9.75
2018-07-30T04:10:20.886Z,8.73
2018-07-30T04:13:24.331Z,8.55
2018-07-30T04:16:27.730Z,8.73
2018-07-30T04:19:31.131Z,8.45
2018-07-30T04:22:34.504Z,8.73
2018-07-30T04:25:37.845Z,8.93
2018-07-30T04:28:41.190Z,8.73
2018-07-30T04:31:44.625Z,9.00
2018-07-30T04:34:47.973Z,8.58
2018-07-30T04:37:51.432Z,8.38
2018-07-30T04:40:54.780Z,9.03
2018-07-30T04:43:58.143Z,8.90
2018-07-30T04:47:01.485Z,8.05
2018-07-30T04:50:04.895Z,8.75
2018-07-30T04:53:08.217Z,7.75
2018-07-30T04:56:11.614Z,9.10
2018-07-30T04:59:14.977Z,9.05
2018-07-30T05:02:18.342Z,8.50
2018-07-30T05:05:21.710Z,8.75
2018-07-30T05:08:25.038Z,9.03
2018-07-30T05:11:28.413Z,9.15
2018-07-30T05:14:31.781Z,9.53
2018-07-30T05:17:35.207Z,8.88
2018-07-30T05:20:38.608Z,10.05
2018-07-30T05:23:42.160Z,9.90
2018-07-30T05:26:45.611Z,8.80
2018-07-30T05:29:48.968Z,10.15
2018-07-30T05:32:52.300Z,9.60
2018-07-30T05:35:55.808Z,9.75
2018-07-30T05:38:59.208Z,10.08
2018-07-30T05:42:02.607Z,10.35
2018-07-30T05:45:06.508Z,10.60
2018-07-30T05:48:09.886Z,9.85
2018-07-30T05:51:13.320Z,9.95
2018-07-30T05:54:16.717Z,10.28
2018-07-30T05:57:20.106Z,10.40
2018-07-30T06:00:23.484Z,11.05
2018-07-30T06:03:26.857Z,10.58
2018-07-30T06:06:30.315Z,10.55
2018-07-30T06:09:33.735Z,9.75
2018-07-30T06:12:37.074Z,9.40
2018-07-30T06:15:40.440Z,9.70
2018-07-30T06:18:43.809Z,9.40
2018-07-30T06:21:47.201Z,10.00
2018-07-30T06:24:50.921Z,8.50
2018-07-30T06:27:54.418Z,10.68
2018-07-30T06:30:57.813Z,9.50
2018-07-30T06:34:01.319Z,10.10
2018-07-30T06:37:04.408Z,9.70
2018-07-30T06:40:07.810Z,9.88
2018-07-30T06:43:11.205Z,9.85
2018-07-30T06:46:14.817Z,9.45
2018-07-30T06:49:18.318Z,9.30
2018-07-30T06:52:21.744Z,8.63
2018-07-30T06:55:25.168Z,8.63
2018-07-30T06:58:28.635Z,9.00
2018-07-30T07:01:32.037Z,8.55
2018-07-30T07:04:35.385Z,8.25
2018-07-30T07:07:38.833Z,8.50
2018-07-30T07:10:45.307Z,8.10
2018-07-30T07:13:48.807Z,8.35
2018-07-30T07:16:52.214Z,7.45
2018-07-30T07:19:55.541Z,8.68
2018-07-30T07:22:59.261Z,7.85
2018-07-30T07:26:02.696Z,8.18
2018-07-30T07:29:06.085Z,8.25
2018-07-30T07:32:09.509Z,8.15
2018-07-30T07:35:12.874Z,7.83
2018-07-30T07:38:16.261Z,7.15
2018-07-30T07:41:19.621Z,7.28
2018-07-30T07:44:23.019Z,7.45
2018-07-30T07:47:26.383Z,8.08
2018-07-30T07:50:29.867Z,7.17
2018-07-30T07:53:33.336Z,6.90
2018-07-30T07:56:36.675Z,7.30
2018-07-30T07:59:40.041Z,7.95
2018-07-30T08:02:43.448Z,7.47
2018-07-30T08:05:46.916Z,7.30
2018-07-30T08:08:50.314Z,6.55
2018-07-30T08:11:53.686Z,7.10
2018-07-30T08:14:57.061Z,7.28
2018-07-30T08:18:00.466Z,7.58
2018-07-30T08:21:03.912Z,7.53
2018-07-30T08:24:07.358Z,7.70
2018-07-30T08:27:10.813Z,7.65
2018-07-30T08:30:14.192Z,8.13
2018-07-30T08:33:17.580Z,8.30
2018-07-30T08:36:20.937Z,8.55
2018-07-30T08:39:24.412Z,7.60
2018-07-30T08:42:27.814Z,7.95
2018-07-30T08:45:31.229Z,7.83
2018-07-30T08:48:34.712Z,7.55
2018-07-30T08:51:38.216Z,7.08
2018-07-30T08:54:41.608Z,6.97
2018-07-30T08:57:44.958Z,7.37
2018-07-30T09:00:48.414Z,7.12
2018-07-30T09:03:51.768Z,7.22
2018-07-30T09:06:55.092Z,6.75
2018-07-30T09:09:58.511Z,7.08
2018-07-30T09:13:01.910Z,6.03
2018-07-30T09:16:05.308Z,6.90
2018-07-30T09:19:08.673Z,6.25
2018-07-30T09:22:12.046Z,5.85
2018-07-30T09:25:15.507Z,5.58
2018-07-30T09:28:18.907Z,5.67
2018-07-30T09:31:22.241Z,5.60
2018-07-30T09:34:25.605Z,6.33
2018-07-30T09:37:29.002Z,5.00
2018-07-30T09:40:32.400Z,5.50
2018-07-30T09:43:35.716Z,5.60
2018-07-30T09:46:39.062Z,5.00
2018-07-30T09:49:42.396Z,5.72
2018-07-30T09:52:45.708Z,5.97
2018-07-30T09:55:49.052Z,5.83
2018-07-30T09:58:52.491Z,5.55
2018-07-30T10:01:55.859Z,5.33
2018-07-30T10:04:59.200Z,6.10
2018-07-30T10:08:02.528Z,5.45
2018-07-30T10:11:05.886Z,5.33
2018-07-30T10:14:09.387Z,5.42
2018-07-30T10:17:12.727Z,5.30
2018-07-30T10:20:16.185Z,5.62
2018-07-30T10:23:19.604Z,4.97
2018-07-30T10:26:22.968Z,5.60
2018-07-30T10:29:26.023Z,5.70
2018-07-30T10:32:29.475Z,5.17
2018-07-30T10:35:32.829Z,4.55
2018-07-30T10:38:36.177Z,4.67
2018-07-30T10:41:39.576Z,5.10
2018-07-30T10:44:42.904Z,5.15
2018-07-30T10:47:46.370Z,4.10
2018-07-30T10:50:49.709Z,4.92
2018-07-30T10:53:53.113Z,4.72
2018-07-30T10:56:56.405Z,5.35
2018-07-30T10:59:59.772Z,5.08
2018-07-30T11:03:03.144Z,4.60
2018-07-30T11:06:06.573Z,5.33
2018-07-30T11:09:10.412Z,5.53
2018-07-30T11:12:13.873Z,5.50
2018-07-30T11:15:17.253Z,4.78
2018-07-30T11:18:20.592Z,5.17
2018-07-30T11:21:24.132Z,5.58
2018-07-30T11:24:27.578Z,5.50
2018-07-30T11:27:30.973Z,5.28
2018-07-30T11:30:34.288Z,5.05
2018-07-30T11:33:37.683Z,5.92
2018-07-30T11:36:41.068Z,5.62
2018-07-30T11:39:44.410Z,5.15
2018-07-30T11:42:47.870Z,5.37
2018-07-30T11:45:51.208Z,5.60
2018-07-30T11:48:54.562Z,5.50
2018-07-30T11:51:57.900Z,5.22
2018-07-30T11:55:01.225Z,5.78
2018-07-30T11:58:04.660Z,5.33
2018-07-30T12:01:08.079Z,5.42
2018-07-30T12:04:11.459Z,5.33
2018-07-30T12:07:14.799Z,5.62
2018-07-30T12:10:18.136Z,5.15
2018-07-30T12:13:21.602Z,5.08
2018-07-30T12:16:24.906Z,5.20
2018-07-30T12:19:28.267Z,5.70
2018-07-30T12:22:31.605Z,5.03
2018-07-30T12:25:34.926Z,4.97
2018-07-30T12:28:38.268Z,5.78
2018-07-30T12:31:41.644Z,5.28
2018-07-30T12:34:44.992Z,5.30
2018-07-30T12:37:48.342Z,5.70
2018-07-30T12:40:51.680Z,4.92
2018-07-30T12:43:55.004Z,5.70
2018-07-30T12:46:58.335Z,5.45
2018-07-30T12:50:01.683Z,5.42
2018-07-30T12:53:05.191Z,4.97
2018-07-30T12:56:08.635Z,5.28
2018-07-30T12:59:12.019Z,5.53
2018-07-30T13:02:15.386Z,5.30
2018-07-30T13:05:18.744Z,5.28
2018-07-30T13:08:22.171Z,5.03
2018-07-30T13:11:25.544Z,5.00
2018-07-30T13:14:28.916Z,5.15
2018-07-30T13:17:32.395Z,5.17
2018-07-30T13:20:35.768Z,5.33
2018-07-30T13:23:39.234Z,5.15
2018-07-30T13:26:42.601Z,5.05
2018-07-30T13:29:45.968Z,5.25
2018-07-30T13:32:49.465Z,5.33
2018-07-30T13:35:52.917Z,4.62
2018-07-30T13:38:56.282Z,5.05
2018-07-30T13:41:59.670Z,5.37
2018-07-30T13:45:03.028Z,5.45
2018-07-30T13:48:06.423Z,4.97
2018-07-30T13:51:09.881Z,5.25
2018-07-30T13:54:13.276Z,4.97
2018-07-30T13:57:16.680Z,5.62
2018-07-30T14:00:20.081Z,5.58
2018-07-30T14:03:23.424Z,5.50
2018-07-30T14:06:26.823Z,5.05
2018-07-30T14:09:30.179Z,5.15
2018-07-30T14:12:33.509Z,5.37
2018-07-30T14:15:36.885Z,5.30
2018-07-30T14:18:40.221Z,4.95
2018-07-30T14:21:43.572Z,5.83
2018-07-30T14:24:47.140Z,5.28
2018-07-30T14:27:50.581Z,5.40
2018-07-30T14:30:53.980Z,5.10
2018-07-30T14:33:57.321Z,4.60
2018-07-30T14:37:00.784Z,5.05
2018-07-30T14:40:11.410Z,5.72
2018-07-30T14:43:14.764Z,5.92
2018-07-30T14:46:18.254Z,5.20
2018-07-30T14:49:21.572Z,5.45
2018-07-30T14:52:24.973Z,5.70
2018-07-30T14:55:28.337Z,5.10
2018-07-30T14:58:31.752Z,5.65
2018-07-30T15:01:35.253Z,5.28
2018-07-30T15:04:38.654Z,5.37
2018-07-30T15:07:41.740Z,4.90
2018-07-30T15:10:45.152Z,5.47
2018-07-30T15:13:48.533Z,5.60
2018-07-30T15:16:51.900Z,4.87
2018-07-30T15:19:55.263Z,5.35
2018-07-30T15:22:58.765Z,4.97
2018-07-30T15:26:02.163Z,4.72
2018-07-30T15:29:05.504Z,5.17
2018-07-30T15:32:08.877Z,4.97
2018-07-30T15:35:12.228Z,5.17
2018-07-30T15:38:15.660Z,4.80
2018-07-30T15:41:19.162Z,4.90
2018-07-30T15:44:22.534Z,5.28
2018-07-30T15:47:25.888Z,4.97
2018-07-30T15:50:29.324Z,5.08
2018-07-30T15:53:33.579Z,5.75
2018-07-30T15:56:36.949Z,4.92
2018-07-30T15:59:40.309Z,5.22
2018-07-30T16:02:43.675Z,5.03
2018-07-30T16:05:47.026Z,4.97
2018-07-30T16:08:50.372Z,5.03
2018-07-30T16:11:53.774Z,5.30
2018-07-30T16:14:57.189Z,5.20
2018-07-30T16:18:00.691Z,5.12
2018-07-30T16:21:04.090Z,5.08
2018-07-30T16:24:07.609Z,5.62
2018-07-30T16:27:10.985Z,5.20
2018-07-30T16:30:14.378Z,5.22
2018-07-30T16:33:17.760Z,5.28
2018-07-30T16:36:21.213Z,5.70
2018-07-30T16:43:02.694Z,5.20
2018-07-30T16:46:06.343Z,5.20
2018-07-30T16:49:09.745Z,5.40
2018-07-30T16:52:13.279Z,5.60
2018-07-30T16:55:16.978Z,6.00
2018-07-30T16:58:20.492Z,5.83
2018-07-30T17:01:23.912Z,5.42
2018-07-30T17:04:27.296Z,5.22
2018-07-30T17:07:30.759Z,5.55
2018-07-30T17:10:34.133Z,5.55
2018-07-30T17:13:37.511Z,5.33
2018-07-30T17:16:41.161Z,5.40
2018-07-30T17:19:44.528Z,5.53
2018-07-30T17:22:47.884Z,5.50
2018-07-30T17:25:51.359Z,5.90
2018-07-30T17:28:54.761Z,5.37
2018-07-30T17:31:58.127Z,5.80
2018-07-30T17:35:01.814Z,5.55
2018-07-30T17:38:05.215Z,5.65
2018-07-30T17:41:08.718Z,5.78
2018-07-30T17:44:12.225Z,6.15
2018-07-30T17:47:15.615Z,5.28
2018-07-30T17:50:19.066Z,5.28
2018-07-30T17:53:22.467Z,5.25
2018-07-30T17:56:25.856Z,5.45
2018-07-30T17:59:29.305Z,5.03
2018-07-30T18:02:32.871Z,5.25
2018-07-30T18:05:36.373Z,5.20
2018-07-30T18:08:39.820Z,4.92
2018-07-30T18:11:43.212Z,5.30
2018-07-30T18:14:46.636Z,5.12
2018-07-30T18:17:50.040Z,4.78
2018-07-30T18:20:53.445Z,5.25
2018-07-30T18:23:56.879Z,5.03
2018-07-30T18:27:01.241Z,5.15
2018-07-30T18:30:05.738Z,4.58
2018-07-30T18:33:09.369Z,5.00
2018-07-30T18:36:12.767Z,4.90
2018-07-30T18:39:16.156Z,4.60
2018-07-30T18:42:19.521Z,5.08
2018-07-30T18:45:22.931Z,4.67
2018-07-30T18:48:26.325Z,4.80
2018-07-30T18:51:29.828Z,4.78
2018-07-30T18:54:33.228Z,4.92
2018-07-30T18:57:36.595Z,4.80
2018-07-30T19:00:40.014Z,4.83
2018-07-30T19:03:43.426Z,4.85
2018-07-30T19:06:46.889Z,4.87
2018-07-30T19:09:50.291Z,4.67
2018-07-30T19:12:53.677Z,4.53
2018-07-30T19:15:57.142Z,4.75
2018-07-30T19:19:00.528Z,4.85
2018-07-30T19:22:03.970Z,5.08
2018-07-30T19:25:07.444Z,4.42
2018-07-30T19:28:17.276Z,4.40
2018-07-30T19:31:20.740Z,4.87
2018-07-30T19:34:24.152Z,4.60
2018-07-30T19:37:27.594Z,5.03
2018-07-30T19:40:31.024Z,5.08
2018-07-30T19:43:34.473Z,4.72
2018-07-30T19:46:37.862Z,4.40
2018-07-30T19:49:41.279Z,4.87
2018-07-30T19:52:44.696Z,5.00
2018-07-30T19:55:48.109Z,4.55
2018-07-30T19:58:51.772Z,4.70
2018-07-30T20:01:55.105Z,4.78
2018-07-30T20:04:58.491Z,4.45
2018-07-30T20:08:01.930Z,4.72
2018-07-30T20:11:05.382Z,4.72
2018-07-30T20:14:09.024Z,5.20
2018-07-30T20:17:12.473Z,4.37
2018-07-30T20:20:16.778Z,4.60
2018-07-30T20:23:20.204Z,4.67
2018-07-30T20:26:23.823Z,4.35
2018-07-30T20:29:27.412Z,5.20
2018-07-30T20:32:30.774Z,4.33
2018-07-30T20:35:34.138Z,5.47
2018-07-30T20:38:37.491Z,5.20
2018-07-30T20:41:40.880Z,5.33
2018-07-30T20:44:44.250Z,5.20
2018-07-30T20:47:47.687Z,4.83
2018-07-30T20:50:51.211Z,5.05
2018-07-30T20:53:54.278Z,5.42
2018-07-30T20:56:57.737Z,4.33
2018-07-30T21:00:01.044Z,4.45
2018-07-30T21:03:04.602Z,4.80
2018-07-30T21:06:07.974Z,4.53
2018-07-30T21:09:11.669Z,4.60
2018-07-30T21:12:15.053Z,4.25
2018-07-30T21:15:18.433Z,5.20
2018-07-30T21:18:21.829Z,4.62
2018-07-30T21:21:25.268Z,5.37
2018-07-30T21:24:28.643Z,4.95
2018-07-30T21:27:32.096Z,5.42
2018-07-30T21:30:35.522Z,5.35
2018-07-30T21:33:39.991Z,5.62
2018-07-30T21:36:43.416Z,5.50
2018-07-30T21:39:46.820Z,4.75
2018-07-30T21:42:50.324Z,5.20
2018-07-30T21:45:53.691Z,5.25
2018-07-30T21:48:57.078Z,4.53
2018-07-30T21:52:00.426Z,5.17
2018-07-30T21:55:04.192Z,4.20
2018-07-30T21:58:07.584Z,5.42
2018-07-30T22:01:10.993Z,5.72
2018-07-30T22:04:14.382Z,5.08
2018-07-30T22:07:17.839Z,5.75
2018-07-30T22:10:23.245Z,5.08
2018-07-30T22:13:26.685Z,5.45
2018-07-30T22:16:30.053Z,5.25
2018-07-30T22:19:33.425Z,4.92
2018-07-30T22:22:37.637Z,5.45
2018-07-30T22:25:41.032Z,5.17
2018-07-30T22:28:44.502Z,5.25
2018-07-30T22:31:47.902Z,4.85
2018-07-30T22:34:51.303Z,5.00
2018-07-30T22:37:54.660Z,5.03
2018-07-30T22:40:58.036Z,5.28
2018-07-30T22:44:01.398Z,4.92
2018-07-30T22:47:04.898Z,4.97
2018-07-30T22:50:08.260Z,5.65
2018-07-30T22:53:11.616Z,5.47
2018-07-30T22:56:14.992Z,5.65
2018-07-30T22:59:18.351Z,6.03
2018-07-30T23:02:21.744Z,5.47
2018-07-30T23:05:25.144Z,5.62
2018-07-30T23:08:28.509Z,5.42
2018-07-30T23:11:31.876Z,5.30
2018-07-30T23:14:34.955Z,5.55
2018-07-30T23:17:38.343Z,5.47
2018-07-30T23:20:41.711Z,5.15
2018-07-30T23:23:45.089Z,5.15
2018-07-30T23:26:48.468Z,5.37
2018-07-30T23:29:51.843Z,5.85
2018-07-30T23:32:55.180Z,5.78
2018-07-30T23:35:58.590Z,5.85
2018-07-30T23:39:01.938Z,5.50
2018-07-30T23:42:05.319Z,6.35
2018-07-30T23:45:08.717Z,6.35
2018-07-30T23:48:12.068Z,6.05
2018-07-30T23:51:15.427Z,5.85
2018-07-30T23:54:18.777Z,5.22
2018-07-30T23:57:22.188Z,6.00
